Hampton, Mississippi
Current Conditions -  °F | °C
As of 3:03 AM on Monday 20 Oct 2014 (Local Time) from KGLH Reporting Station
Haze Haze  
Wind Chill: 48°   Ceiling: Unl
Heat Index: 48°   Visibility: 1mi
Dew Point: 46°   Wind: 0mph
Humidity: 93%   Direction: NA
Pressure: 30.08"   Gusts: NA
Location:  33.0379°N, 90.9708°W
Report Text: KGLH 200803Z AUTO 00000KT 1SM BR CLR 09/08 A3008 RMK AO2 T00890078
Loading
Personal Weather Stations






























Interactive Weather Map
Tropical Storm Tracking
New forecast layout! Learn more

10-Day Weather Forecast

Advertisements
Track Severe Weather on mobile